Главная страница
METAR-TAF:

METAR-TAF

Аэропорты :

Гран-Канария, Испания

широта: 27-56N, долгота: 015-23W, высота над уровнем моря: 23 м

Текущие метеонаблюдения

Эта сводка был подготовлена 16 минут назад, в 11:30 UTC
Ветер 22 Узел от северо-северо-восточный, изменяющийся между северный и северо-восточный
Температура 24°C
Влажность 61%
Давление 1019 hPa
Видимость 10 км и более
небольшая облачность на высоте 2500 фута

METAR: GCLP 211130Z 02022KT 350V050 9999 FEW025 24/16 Q1019 NOSIG

Время: 12:46 (11:46 UTC)

Прогноз

Эта сводка был подготовлена 3 часа и 46 минут назад, в 08:00 UTC
Прогноз действительный с 21-го 09 UTC до 22-го 09 UTC
Ветер 21 Узел от северо-северо-восточный
Видимость 10 км и более
небольшая облачность на высоте 3000 фута

TAF: GCLP 210800Z 2109/2209 02021KT 9999 FEW030 TX26/2113Z TN19/2205Z

Метеонаблюдения и прогнозы для более 4000 аэропортов (сводки METAR и TAF).

Имеющиеся станции представлены на карте желтыми и красными точками.

Чтобы увидеть название станции, наведите на нее мышь.

Затем щелкните, чтобы увидеть метеонаблюдения и метеопрогнозы.

Управление картой: чтобы увеличить масштаб, щелкните зеленые кнопки с черным крестиком; чтобы уменьшить масштаб, щелкните зеленую кнопку с тире; для просмотра соседних карт щелкайте зеленые стрелки.


METAR-TAF: